Ana Sayfa
METAR-TAF:

METAR-TAF

Havaalanları :

Mehrabad Havalimanı

Tahran, İran

Enlem: 35-41N, Boylam: 051-21E, yükseklik: 1204 m

Güncel hava durumu gözlemi

Rapor saat 23:30 UTC de 17 dakika önce yapıldı.
Sakin rüzgar
Sıcaklık 13°C
Nem 62%
Basınç 1023 hPa
Görüş mesafesi 10 km veya daha fazla
1500 m altında bulut yok ve kümülonimbus yok

METAR: OIII 172330Z 00000KT CAVOK 13/06 Q1022 A3020

Saat: 03:17 (23:47 UTC)

Tahmin

Rapor saat 23:30 UTC de 17 dakika önce yapıldı.
Ayın 18'si saat 00 UTC'den ayın 19'si saat 06 UTC'ye kadar geçerli Tahmin
Rüzgar kuzeydoğudan 8 kt
Görüş mesafesi: 7000 m

TAF: OIII 172330Z 1800/1906 04004MPS 7000 NSC

4.000'den fazla havaalanı için hava durumu gözlemleri ve tahminleri (METAR ve TAF raporları).

Kullanılabilir istasyonlar harita üzerinde sarı ve kırmızı noktalarla gösterilir.

İstasyonun adını görmek için fareyi noktanın üzerinde gezdirin.

Sonrasında hava gözlem ve tahminlerini görmek için tıklayın.

Haritayı değiştirmek için: yaklaştırmak için siyah artı işaretli yeşil düğmeye ve uzaklaştırmak için de eksi işaretli düğmeye hızla tıklayın; bitişik haritalar için yeşil okları kullanın.


METAR-TAF: